createdAt,value
2022-08-30T00:00:14.106Z,18.74
2022-08-30T00:01:15.813Z,18.73
2022-08-30T00:02:17.640Z,18.71
2022-08-30T00:03:19.514Z,18.71
2022-08-30T00:04:21.054Z,18.7
2022-08-30T00:05:22.763Z,18.69
2022-08-30T00:06:24.496Z,18.69
2022-08-30T00:07:26.230Z,18.68
2022-08-30T00:08:27.975Z,18.67
2022-08-30T00:09:29.732Z,18.65
2022-08-30T00:10:31.438Z,18.65
2022-08-30T00:11:33.170Z,18.63
2022-08-30T00:12:24.669Z,18.61
2022-08-30T00:13:26.380Z,18.6
2022-08-30T00:14:28.103Z,18.6
2022-08-30T00:15:29.904Z,18.58
2022-08-30T00:16:31.619Z,18.57
2022-08-30T00:17:33.286Z,18.55
2022-08-30T00:18:35.063Z,18.55
2022-08-30T00:19:36.799Z,18.54
2022-08-30T00:20:38.520Z,18.53
2022-08-30T00:21:40.237Z,18.5
2022-08-30T00:22:42.000Z,18.49
2022-08-30T00:23:43.710Z,18.48
2022-08-30T00:24:45.491Z,18.47
2022-08-30T00:25:47.171Z,18.45
2022-08-30T00:26:48.972Z,18.45
2022-08-30T00:27:50.652Z,18.44
2022-08-30T00:28:52.445Z,18.42
2022-08-30T00:29:54.141Z,18.41
2022-08-30T00:30:55.904Z,18.4
2022-08-30T00:31:57.622Z,18.38
2022-08-30T00:32:59.330Z,18.35
2022-08-30T00:34:01.061Z,18.34
2022-08-30T00:35:02.811Z,18.33
2022-08-30T00:36:04.529Z,18.31
2022-08-30T00:37:06.266Z,18.31
2022-08-30T00:38:07.999Z,18.28
2022-08-30T00:39:09.728Z,18.27
2022-08-30T00:40:11.589Z,18.25
2022-08-30T00:41:13.201Z,18.24
2022-08-30T00:42:14.931Z,18.23
2022-08-30T00:43:17.008Z,18.21
2022-08-30T00:44:18.398Z,18.19
2022-08-30T00:45:20.165Z,18.17
2022-08-30T00:46:21.898Z,18.16
2022-08-30T00:47:23.614Z,18.14
2022-08-30T00:48:25.354Z,18.12
2022-08-30T00:49:27.093Z,18.1
2022-08-30T00:50:28.841Z,18.09
2022-08-30T00:51:30.544Z,18.08
2022-08-30T00:52:32.276Z,18.06
2022-08-30T00:53:34.024Z,18.04
2022-08-30T00:54:35.767Z,18.03
2022-08-30T00:55:39.098Z,18.01
2022-08-30T00:56:39.222Z,18
2022-08-30T00:57:40.936Z,17.99
2022-08-30T00:58:42.694Z,17.99
2022-08-30T00:59:44.441Z,17.98
2022-08-30T01:00:46.155Z,17.96
2022-08-30T01:01:47.944Z,17.94
2022-08-30T01:02:49.680Z,17.93
2022-08-30T01:03:51.364Z,17.92
2022-08-30T01:04:53.135Z,17.91
2022-08-30T01:05:54.831Z,17.9
2022-08-30T01:06:56.570Z,17.89
2022-08-30T01:07:58.305Z,17.89
2022-08-30T01:09:00.052Z,17.87
2022-08-30T01:10:01.781Z,17.87
2022-08-30T01:11:04.561Z,17.86
2022-08-30T01:12:05.242Z,17.84
2022-08-30T01:13:06.986Z,17.83
2022-08-30T01:14:08.732Z,17.81
2022-08-30T01:15:10.449Z,17.81
2022-08-30T01:16:12.304Z,17.79
2022-08-30T01:17:13.920Z,17.77
2022-08-30T01:18:15.656Z,17.75
2022-08-30T01:19:17.478Z,17.73
2022-08-30T01:20:19.125Z,17.72
2022-08-30T01:21:20.871Z,17.7
2022-08-30T01:22:22.604Z,17.68
2022-08-30T01:23:24.328Z,17.67
2022-08-30T01:24:26.074Z,17.64
2022-08-30T01:25:27.803Z,17.62
2022-08-30T01:26:29.544Z,17.61
2022-08-30T01:27:31.265Z,17.59
2022-08-30T01:28:32.994Z,17.56
2022-08-30T01:29:34.733Z,17.55
2022-08-30T01:30:36.483Z,17.54
2022-08-30T01:31:38.203Z,17.52
2022-08-30T01:32:39.938Z,17.51
2022-08-30T01:33:41.675Z,17.5
2022-08-30T01:34:43.436Z,17.48
2022-08-30T01:35:45.151Z,17.47
2022-08-30T01:36:46.895Z,17.45
2022-08-30T01:37:48.620Z,17.43
2022-08-30T01:38:50.356Z,17.41
2022-08-30T01:39:52.098Z,17.39
2022-08-30T01:40:53.816Z,17.38
2022-08-30T01:41:55.542Z,17.37
2022-08-30T01:42:57.296Z,17.36
2022-08-30T01:43:59.043Z,17.34
2022-08-30T01:45:00.751Z,17.32
2022-08-30T01:46:05.559Z,17.33
2022-08-30T01:47:04.229Z,17.31
2022-08-30T01:48:06.558Z,17.31
2022-08-30T01:49:07.731Z,17.29
2022-08-30T01:50:09.428Z,17.29
2022-08-30T01:51:11.168Z,17.28
2022-08-30T01:52:12.899Z,17.28
2022-08-30T01:53:14.719Z,17.26
2022-08-30T01:54:16.378Z,17.26
2022-08-30T01:55:18.112Z,17.25
2022-08-30T01:56:19.849Z,17.24
2022-08-30T01:57:21.578Z,17.23
2022-08-30T01:58:23.367Z,17.22
2022-08-30T01:59:25.063Z,17.22
2022-08-30T02:00:26.789Z,17.22
2022-08-30T02:01:28.736Z,17.21
2022-08-30T02:02:30.262Z,17.21
2022-08-30T02:03:32.046Z,17.2
2022-08-30T02:04:33.756Z,17.2
2022-08-30T02:05:35.535Z,17.2
2022-08-30T02:06:37.209Z,17.2
2022-08-30T02:07:38.937Z,17.19
2022-08-30T02:08:40.668Z,17.18
2022-08-30T02:09:42.401Z,17.18
2022-08-30T02:10:44.151Z,17.19
2022-08-30T02:11:45.875Z,17.18
2022-08-30T02:12:47.605Z,17.18
2022-08-30T02:13:49.350Z,17.17
2022-08-30T02:14:51.093Z,17.18
2022-08-30T02:15:52.835Z,17.17
2022-08-30T02:16:54.656Z,17.17
2022-08-30T02:17:56.274Z,17.16
2022-08-30T02:18:58.033Z,17.15
2022-08-30T02:19:59.754Z,17.15
2022-08-30T02:21:01.507Z,17.14
2022-08-30T02:22:03.217Z,17.13
2022-08-30T02:23:04.961Z,17.13
2022-08-30T02:24:06.702Z,17.12
2022-08-30T02:25:12.180Z,17.12
2022-08-30T02:26:10.178Z,17.12
2022-08-30T02:27:11.911Z,17.11
2022-08-30T02:28:14.893Z,17.11
2022-08-30T02:29:15.356Z,17.1
2022-08-30T02:30:17.100Z,17.09
2022-08-30T02:31:19.348Z,17.09
2022-08-30T02:32:20.578Z,17.09
2022-08-30T02:33:22.307Z,17.07
2022-08-30T02:34:24.066Z,17.08
2022-08-30T02:35:25.775Z,17.08
2022-08-30T02:36:27.510Z,17.08
2022-08-30T02:37:29.257Z,17.07
2022-08-30T02:38:30.991Z,17.07
2022-08-30T02:39:32.749Z,17.06
2022-08-30T02:40:34.536Z,17.06
2022-08-30T02:41:36.193Z,17.06
2022-08-30T02:42:37.922Z,17.05
2022-08-30T02:43:39.671Z,17.04
2022-08-30T02:44:41.419Z,17.05
2022-08-30T02:45:43.247Z,17.05
2022-08-30T02:46:44.885Z,17.04
2022-08-30T02:47:47.145Z,17.04
2022-08-30T02:48:48.348Z,17.04
2022-08-30T02:49:50.092Z,17.04
2022-08-30T02:50:51.820Z,17.04
2022-08-30T02:51:53.558Z,17.03
2022-08-30T02:52:55.433Z,17.02
2022-08-30T02:53:56.993Z,17.02
2022-08-30T02:54:58.744Z,17.01
2022-08-30T02:56:00.513Z,17
2022-08-30T02:57:02.215Z,16.99
2022-08-30T02:58:03.933Z,16.99
2022-08-30T02:59:05.686Z,16.99
2022-08-30T03:00:07.423Z,16.97
2022-08-30T03:01:09.178Z,16.96
2022-08-30T03:02:10.877Z,16.95
2022-08-30T03:03:12.769Z,16.94
2022-08-30T03:04:14.379Z,16.93
2022-08-30T03:05:16.109Z,16.91
2022-08-30T03:06:17.822Z,16.91
2022-08-30T03:07:19.546Z,16.91
2022-08-30T03:08:21.294Z,16.9
2022-08-30T03:09:23.024Z,16.89
2022-08-30T03:10:24.770Z,16.89
2022-08-30T03:11:26.484Z,16.88
2022-08-30T03:12:28.244Z,16.87
2022-08-30T03:13:29.996Z,16.87
2022-08-30T03:14:31.725Z,16.87
2022-08-30T03:15:33.459Z,16.86
2022-08-30T03:16:35.225Z,16.85
2022-08-30T03:17:36.915Z,16.86
2022-08-30T03:18:38.644Z,16.86
2022-08-30T03:19:40.389Z,16.85
2022-08-30T03:20:42.135Z,16.84
2022-08-30T03:21:43.859Z,16.83
2022-08-30T03:22:45.599Z,16.82
2022-08-30T03:23:47.325Z,16.82
2022-08-30T03:24:49.071Z,16.8
2022-08-30T03:25:50.799Z,16.81
2022-08-30T03:26:52.516Z,16.8
2022-08-30T03:27:54.248Z,16.8
2022-08-30T03:28:55.987Z,16.78
2022-08-30T03:29:57.738Z,16.78
2022-08-30T03:30:59.464Z,16.77
2022-08-30T03:32:01.232Z,16.76
2022-08-30T03:33:02.933Z,16.75
2022-08-30T03:34:04.673Z,16.74
2022-08-30T03:35:06.413Z,16.72
2022-08-30T03:36:08.140Z,16.7
2022-08-30T03:37:09.871Z,16.68
2022-08-30T03:38:11.604Z,16.65
2022-08-30T03:39:14.018Z,16.62
2022-08-30T03:40:15.144Z,16.59
2022-08-30T03:41:16.831Z,16.55
2022-08-30T03:42:18.552Z,16.51
2022-08-30T03:43:20.274Z,16.47
2022-08-30T03:44:22.022Z,16.42
2022-08-30T03:45:23.868Z,16.39
2022-08-30T03:46:28.795Z,16.36
2022-08-30T03:47:27.237Z,16.32
2022-08-30T03:48:28.963Z,16.29
2022-08-30T03:49:30.720Z,16.27
2022-08-30T03:50:32.427Z,16.23
2022-08-30T03:51:34.165Z,16.22
2022-08-30T03:52:35.902Z,16.19
2022-08-30T03:53:37.643Z,16.17
2022-08-30T03:54:39.386Z,16.15
2022-08-30T03:55:41.103Z,16.15
2022-08-30T03:56:42.841Z,16.14
2022-08-30T03:57:44.589Z,16.13
2022-08-30T03:58:46.306Z,16.13
2022-08-30T03:59:48.064Z,16.14
2022-08-30T04:00:49.663Z,16.13
2022-08-30T04:01:51.397Z,16.14
2022-08-30T04:02:53.152Z,16.15
2022-08-30T04:03:54.870Z,16.15
2022-08-30T04:04:56.577Z,16.16
2022-08-30T04:05:58.294Z,16.17
2022-08-30T04:07:00.033Z,16.18
2022-08-30T04:08:01.761Z,16.19
2022-08-30T04:09:03.498Z,16.21
2022-08-30T04:10:05.311Z,16.22
2022-08-30T04:11:06.981Z,16.23
2022-08-30T04:12:08.699Z,16.24
2022-08-30T04:13:10.441Z,16.24
2022-08-30T04:14:12.191Z,16.26
2022-08-30T04:15:13.924Z,16.27
2022-08-30T04:16:15.785Z,16.28
2022-08-30T04:17:17.353Z,16.3
2022-08-30T04:18:19.095Z,16.31
2022-08-30T04:19:20.838Z,16.31
2022-08-30T04:20:22.683Z,16.32
2022-08-30T04:21:24.305Z,16.33
2022-08-30T04:22:26.057Z,16.34
2022-08-30T04:23:27.767Z,16.34
2022-08-30T04:24:29.546Z,16.36
2022-08-30T04:25:31.254Z,16.35
2022-08-30T04:26:32.981Z,16.37
2022-08-30T04:27:34.768Z,16.37
2022-08-30T04:28:36.457Z,16.37
2022-08-30T04:29:38.200Z,16.38
2022-08-30T04:30:39.919Z,16.38
2022-08-30T04:31:41.704Z,16.38
2022-08-30T04:32:43.390Z,16.39
2022-08-30T04:33:45.131Z,16.41
2022-08-30T04:34:46.888Z,16.42
2022-08-30T04:35:48.656Z,16.42
2022-08-30T04:36:50.375Z,16.43
2022-08-30T04:37:52.080Z,16.44
2022-08-30T04:38:53.838Z,16.45
2022-08-30T04:39:55.557Z,16.46
2022-08-30T04:40:57.277Z,16.45
2022-08-30T04:41:59.024Z,16.47
2022-08-30T04:43:00.753Z,16.47
2022-08-30T04:44:02.498Z,16.47
2022-08-30T04:45:04.231Z,16.46
2022-08-30T04:46:06.033Z,16.47
2022-08-30T04:47:07.689Z,16.46
2022-08-30T04:48:09.413Z,16.46
2022-08-30T04:49:11.143Z,16.46
2022-08-30T04:50:12.906Z,16.46
2022-08-30T04:51:14.628Z,16.47
2022-08-30T04:52:16.392Z,16.48
2022-08-30T04:53:18.238Z,16.49
2022-08-30T04:54:19.918Z,16.49
2022-08-30T04:55:21.610Z,16.5
2022-08-30T04:56:23.301Z,16.52
2022-08-30T04:57:25.026Z,16.53
2022-08-30T04:58:26.779Z,16.54
2022-08-30T04:59:28.487Z,16.55
2022-08-30T05:00:30.291Z,16.57
2022-08-30T05:01:31.965Z,16.57
2022-08-30T05:02:33.774Z,16.58
2022-08-30T05:03:35.423Z,16.6
2022-08-30T05:04:37.157Z,16.61
2022-08-30T05:05:38.920Z,16.62
2022-08-30T05:06:40.629Z,16.63
2022-08-30T05:07:42.361Z,16.63
2022-08-30T05:08:46.049Z,16.64
2022-08-30T05:09:45.835Z,16.65
2022-08-30T05:10:47.587Z,16.66
2022-08-30T05:11:49.322Z,16.67
2022-08-30T05:12:51.157Z,16.67
2022-08-30T05:13:52.778Z,16.68
2022-08-30T05:14:54.527Z,16.69
2022-08-30T05:15:56.270Z,16.69
2022-08-30T05:16:58.000Z,16.7
2022-08-30T05:17:59.712Z,16.72
2022-08-30T05:19:01.449Z,16.73
2022-08-30T05:20:03.209Z,16.75
2022-08-30T05:21:04.915Z,16.76
2022-08-30T05:22:06.654Z,16.77
2022-08-30T05:23:08.388Z,16.78
2022-08-30T05:24:10.123Z,16.79
2022-08-30T05:25:11.870Z,16.8
2022-08-30T05:26:13.594Z,16.82
2022-08-30T05:27:15.325Z,16.82
2022-08-30T05:28:17.274Z,16.84
2022-08-30T05:29:18.821Z,16.86
2022-08-30T05:30:20.546Z,16.87
2022-08-30T05:31:07.420Z,16.88
2022-08-30T05:32:08.597Z,16.89
2022-08-30T05:33:10.313Z,16.91
2022-08-30T05:34:12.057Z,16.93
2022-08-30T05:35:13.810Z,16.94
2022-08-30T05:36:15.545Z,16.96
2022-08-30T05:37:17.253Z,16.98
2022-08-30T05:38:19.221Z,16.99
2022-08-30T05:39:21.010Z,17.01
2022-08-30T05:40:22.543Z,17.02
2022-08-30T05:41:26.572Z,17.04
2022-08-30T05:42:25.919Z,17.06
2022-08-30T05:43:30.079Z,17.09
2022-08-30T05:44:29.387Z,17.11
2022-08-30T05:45:31.144Z,17.13
2022-08-30T05:47:34.593Z,17.17
2022-08-30T05:48:36.319Z,17.19
2022-08-30T05:49:38.055Z,17.21
2022-08-30T05:50:40.081Z,17.22
2022-08-30T05:51:43.546Z,17.25
2022-08-30T05:52:43.287Z,17.26
2022-08-30T05:53:44.999Z,17.29
2022-08-30T05:54:46.759Z,17.32
2022-08-30T05:55:48.497Z,17.33
2022-08-30T05:56:50.223Z,17.36
2022-08-30T05:57:51.943Z,17.38
2022-08-30T05:58:53.678Z,17.4
2022-08-30T05:59:55.424Z,17.42
2022-08-30T06:00:57.146Z,17.44
2022-08-30T06:01:58.922Z,17.47
2022-08-30T06:03:00.701Z,17.48
2022-08-30T06:04:04.128Z,17.5
2022-08-30T06:05:04.110Z,17.51
2022-08-30T06:06:05.819Z,17.54
2022-08-30T06:07:09.506Z,17.55
2022-08-30T06:08:09.339Z,17.57
2022-08-30T06:09:11.023Z,17.58
2022-08-30T06:10:12.789Z,17.6
2022-08-30T06:11:14.495Z,17.62
2022-08-30T06:12:16.242Z,17.63
2022-08-30T06:13:18.052Z,17.66
2022-08-30T06:14:19.804Z,17.68
2022-08-30T06:15:21.466Z,17.69
2022-08-30T06:16:23.251Z,17.71
2022-08-30T06:17:24.907Z,17.73
2022-08-30T06:18:28.444Z,17.74
2022-08-30T06:19:28.375Z,17.76
2022-08-30T06:20:30.141Z,17.78
2022-08-30T06:21:31.846Z,17.79
2022-08-30T06:22:33.608Z,17.81
2022-08-30T06:23:35.317Z,17.83
2022-08-30T06:24:56.446Z,17.84
2022-08-30T06:25:42.204Z,17.87
2022-08-30T06:26:40.564Z,17.88
2022-08-30T06:27:42.272Z,17.9
2022-08-30T06:28:43.990Z,17.92
2022-08-30T06:29:45.739Z,17.94
2022-08-30T06:30:47.474Z,17.96
2022-08-30T06:31:49.354Z,17.98
2022-08-30T06:32:50.938Z,18
2022-08-30T06:33:52.674Z,18.03
2022-08-30T06:34:54.420Z,18.05
2022-08-30T06:35:58.695Z,18.08
2022-08-30T06:36:57.869Z,18.1
2022-08-30T06:37:59.632Z,18.13
2022-08-30T06:39:01.334Z,18.16
2022-08-30T06:40:03.249Z,18.18
2022-08-30T06:41:04.806Z,18.22
2022-08-30T06:42:06.539Z,18.25
2022-08-30T06:43:08.294Z,18.29
2022-08-30T06:44:10.022Z,18.33
2022-08-30T06:45:11.754Z,18.36
2022-08-30T06:46:13.692Z,18.4
2022-08-30T06:47:15.248Z,18.46
2022-08-30T06:48:17.082Z,18.51
2022-08-30T06:49:18.679Z,18.54
2022-08-30T06:50:20.437Z,18.59
2022-08-30T06:51:22.151Z,18.65
2022-08-30T06:52:23.880Z,18.73
2022-08-30T06:53:25.626Z,18.79
2022-08-30T06:54:27.370Z,18.86
2022-08-30T06:55:29.116Z,18.92
2022-08-30T06:56:31.168Z,18.96
2022-08-30T06:57:32.580Z,19.01
2022-08-30T06:58:34.332Z,19.07
2022-08-30T06:59:36.025Z,19.16
2022-08-30T07:00:37.777Z,19.22
2022-08-30T07:01:39.582Z,19.28
2022-08-30T07:02:41.297Z,19.34
2022-08-30T07:03:42.985Z,19.4
2022-08-30T07:04:44.701Z,19.43
2022-08-30T07:05:46.443Z,19.51
2022-08-30T07:06:48.161Z,19.59
2022-08-30T07:07:49.915Z,19.66
2022-08-30T07:08:55.910Z,19.72
2022-08-30T07:09:53.406Z,19.78
2022-08-30T07:10:55.202Z,19.82
2022-08-30T07:11:56.853Z,19.86
2022-08-30T07:12:58.590Z,19.91
2022-08-30T07:14:00.330Z,19.94
2022-08-30T07:15:02.084Z,19.96
2022-08-30T07:16:03.896Z,20
2022-08-30T07:17:05.534Z,20.06
2022-08-30T07:18:07.273Z,20.12
2022-08-30T07:19:09.004Z,20.18
2022-08-30T07:20:10.756Z,20.26
2022-08-30T07:21:12.473Z,20.32
2022-08-30T07:22:14.206Z,20.39
2022-08-30T07:23:16.181Z,20.47
2022-08-30T07:24:17.718Z,20.55
2022-08-30T07:25:19.976Z,20.62
2022-08-30T07:26:21.152Z,20.69
2022-08-30T07:27:22.879Z,20.73
2022-08-30T07:28:24.616Z,20.74
2022-08-30T07:29:26.353Z,20.8
2022-08-30T07:30:28.104Z,20.84
2022-08-30T07:31:29.821Z,20.88
2022-08-30T07:32:31.564Z,20.88
2022-08-30T07:33:33.277Z,20.89
2022-08-30T07:34:35.172Z,20.9
2022-08-30T07:35:36.940Z,20.9
2022-08-30T07:36:38.507Z,20.93
2022-08-30T07:37:40.215Z,20.95
2022-08-30T07:38:41.953Z,20.97
2022-08-30T07:39:47.594Z,20.99
2022-08-30T07:40:45.554Z,21.04
2022-08-30T07:41:47.180Z,21.09
2022-08-30T07:42:48.906Z,21.12
2022-08-30T07:43:50.647Z,21.16
2022-08-30T07:44:56.130Z,21.2
2022-08-30T07:45:54.125Z,21.24
2022-08-30T07:46:55.916Z,21.27
2022-08-30T07:47:57.582Z,21.32
2022-08-30T07:48:59.327Z,21.36
2022-08-30T07:50:01.059Z,21.42
2022-08-30T07:51:05.810Z,21.47
2022-08-30T07:52:04.517Z,21.53
2022-08-30T07:53:09.236Z,21.61
2022-08-30T07:54:08.003Z,21.67
2022-08-30T07:55:09.825Z,21.75
2022-08-30T07:56:11.484Z,21.83
2022-08-30T07:57:13.216Z,21.93
2022-08-30T07:58:14.925Z,22
2022-08-30T07:59:16.660Z,22.06
2022-08-30T08:00:18.432Z,22.1
2022-08-30T08:01:20.196Z,22.17
2022-08-30T08:02:21.939Z,22.27
2022-08-30T08:03:23.608Z,22.39
2022-08-30T08:04:25.368Z,22.5
2022-08-30T08:05:27.079Z,22.58
2022-08-30T08:06:34.680Z,22.63
2022-08-30T08:07:30.561Z,22.66
2022-08-30T08:08:32.270Z,22.72
2022-08-30T08:09:34.007Z,22.74
2022-08-30T08:10:35.757Z,22.76
2022-08-30T08:11:37.500Z,22.74
2022-08-30T08:12:39.226Z,22.71
2022-08-30T08:13:52.672Z,22.73
2022-08-30T08:14:42.677Z,22.72
2022-08-30T08:15:44.498Z,22.69
2022-08-30T08:16:46.158Z,22.66
2022-08-30T08:17:47.890Z,22.67
2022-08-30T08:18:49.631Z,22.61
2022-08-30T08:19:51.370Z,22.58
2022-08-30T08:20:53.883Z,22.54
2022-08-30T08:22:04.118Z,22.57
2022-08-30T08:22:56.574Z,22.55
2022-08-30T08:23:58.324Z,22.52
2022-08-30T08:25:00.037Z,22.51
2022-08-30T08:26:01.776Z,22.49
2022-08-30T08:26:45.419Z,22.47
2022-08-30T08:27:44.678Z,22.44
2022-08-30T08:28:46.393Z,22.44
2022-08-30T08:29:48.128Z,22.46
2022-08-30T08:30:49.964Z,22.47
2022-08-30T08:31:51.595Z,22.47
2022-08-30T08:32:53.336Z,22.49
2022-08-30T08:33:55.172Z,22.51
2022-08-30T08:34:56.798Z,22.53
2022-08-30T08:35:58.530Z,22.56
2022-08-30T08:37:00.278Z,22.59
2022-08-30T08:38:02.016Z,22.61
2022-08-30T08:39:03.736Z,22.66
2022-08-30T08:40:05.557Z,22.71
2022-08-30T08:41:07.202Z,22.74
2022-08-30T08:42:08.934Z,22.8
2022-08-30T08:43:10.681Z,22.85
2022-08-30T08:44:12.411Z,22.91
2022-08-30T08:45:14.140Z,22.95
2022-08-30T08:46:15.977Z,23.01
2022-08-30T08:47:17.615Z,23.09
2022-08-30T08:48:19.355Z,23.19
2022-08-30T08:49:21.085Z,23.29
2022-08-30T08:50:22.823Z,23.41
2022-08-30T08:51:24.559Z,23.54
2022-08-30T08:52:26.292Z,23.63
2022-08-30T08:53:45.479Z,23.69
2022-08-30T08:54:29.774Z,23.69
2022-08-30T08:55:31.520Z,23.71
2022-08-30T08:56:33.231Z,23.75
2022-08-30T08:57:34.968Z,23.79
2022-08-30T08:58:36.723Z,23.85
2022-08-30T08:59:38.447Z,23.87
2022-08-30T09:00:40.199Z,23.88
2022-08-30T09:01:42.009Z,23.87
2022-08-30T09:02:43.641Z,23.89
2022-08-30T09:03:45.404Z,23.93
2022-08-30T09:04:47.151Z,23.96
2022-08-30T09:05:48.967Z,23.94
2022-08-30T09:06:50.585Z,23.99
2022-08-30T09:07:52.317Z,24.02
2022-08-30T09:08:54.066Z,24.06
2022-08-30T09:09:55.794Z,24.11
2022-08-30T09:10:57.526Z,24.15
2022-08-30T09:11:59.263Z,24.19
2022-08-30T09:13:02.289Z,24.25
2022-08-30T09:14:02.721Z,24.28
2022-08-30T09:15:04.462Z,24.34
2022-08-30T09:16:06.270Z,24.37
2022-08-30T09:17:07.913Z,24.39
2022-08-30T09:18:19.380Z,24.44
2022-08-30T09:19:11.407Z,24.49
2022-08-30T09:20:13.147Z,24.53
2022-08-30T09:21:14.874Z,24.56
2022-08-30T09:22:16.599Z,24.6
2022-08-30T09:23:18.338Z,24.63
2022-08-30T09:24:24.528Z,24.66
2022-08-30T09:25:21.807Z,24.68
2022-08-30T09:26:23.541Z,24.73
2022-08-30T09:27:25.258Z,24.77
2022-08-30T09:28:27.010Z,24.82
2022-08-30T09:29:28.753Z,24.87
2022-08-30T09:30:30.487Z,24.93
2022-08-30T09:31:32.295Z,25.01
2022-08-30T09:32:33.937Z,25.06
2022-08-30T09:33:35.682Z,25.16
2022-08-30T09:34:37.426Z,25.24
2022-08-30T09:35:39.160Z,25.31
2022-08-30T09:36:40.878Z,25.32
2022-08-30T09:37:42.637Z,25.31
2022-08-30T09:38:44.364Z,25.3
2022-08-30T09:39:46.103Z,25.29
2022-08-30T09:40:47.847Z,25.31
2022-08-30T09:41:49.566Z,25.33
2022-08-30T09:42:51.303Z,25.35
2022-08-30T09:43:53.039Z,25.36
2022-08-30T09:44:54.790Z,25.4
2022-08-30T09:45:56.582Z,25.51
2022-08-30T09:46:58.247Z,25.59
2022-08-30T09:47:59.989Z,25.6
2022-08-30T09:49:01.776Z,25.6
2022-08-30T09:50:03.463Z,25.6
2022-08-30T09:51:05.198Z,25.58
2022-08-30T09:52:06.921Z,25.6
2022-08-30T09:53:08.657Z,25.62
2022-08-30T09:54:18.116Z,25.64
2022-08-30T09:55:12.138Z,25.68
2022-08-30T09:56:13.909Z,25.69
2022-08-30T09:57:15.619Z,25.75
2022-08-30T09:58:17.424Z,25.74
2022-08-30T09:59:19.075Z,25.76
2022-08-30T10:00:20.822Z,25.78
2022-08-30T10:01:22.903Z,25.8
2022-08-30T10:02:24.342Z,25.83
2022-08-30T10:04:30.947Z,25.9
2022-08-30T10:05:29.529Z,25.95
2022-08-30T10:06:31.219Z,25.99
2022-08-30T10:07:32.953Z,26.02
2022-08-30T10:08:34.691Z,26.04
2022-08-30T10:09:36.415Z,26.07
2022-08-30T10:10:38.836Z,26.11
2022-08-30T10:11:39.893Z,26.16
2022-08-30T10:12:41.626Z,26.15
2022-08-30T10:13:43.366Z,26.2
2022-08-30T10:14:45.092Z,26.24
2022-08-30T10:15:46.836Z,26.3
2022-08-30T10:16:48.557Z,26.31
2022-08-30T10:17:19.491Z,26.32
2022-08-30T10:18:21.177Z,26.34
2022-08-30T10:19:22.898Z,26.39
2022-08-30T10:20:24.653Z,26.4
2022-08-30T10:21:26.360Z,26.37
2022-08-30T10:22:28.101Z,26.4
2022-08-30T10:23:29.836Z,26.44
2022-08-30T10:24:33.585Z,26.47
2022-08-30T10:25:33.312Z,26.47
2022-08-30T10:26:35.061Z,26.46
2022-08-30T10:27:36.779Z,26.47
2022-08-30T10:28:38.518Z,26.35
2022-08-30T10:29:42.519Z,26.36
2022-08-30T10:30:41.991Z,26.39
2022-08-30T10:31:43.714Z,26.4
2022-08-30T10:32:45.454Z,26.4
2022-08-30T10:33:47.192Z,26.44
2022-08-30T10:34:48.930Z,26.47
2022-08-30T10:35:51.917Z,26.48
2022-08-30T10:36:52.378Z,26.53
2022-08-30T10:37:54.124Z,26.58
2022-08-30T10:38:55.869Z,26.6
2022-08-30T10:39:57.598Z,26.67
2022-08-30T10:40:59.353Z,26.72
2022-08-30T10:42:01.062Z,26.71
2022-08-30T10:43:02.794Z,26.76
2022-08-30T10:44:04.531Z,26.79
2022-08-30T10:45:06.264Z,26.82
2022-08-30T10:46:08.007Z,26.86
2022-08-30T10:47:09.751Z,26.91
2022-08-30T10:48:12.191Z,26.97
2022-08-30T10:49:13.212Z,27
2022-08-30T10:50:14.947Z,27.03
2022-08-30T10:51:16.701Z,27.03
2022-08-30T10:52:18.416Z,27.1
2022-08-30T10:53:20.155Z,27.15
2022-08-30T10:54:21.889Z,27.19
2022-08-30T10:55:23.676Z,27.25
2022-08-30T10:56:25.789Z,27.32
2022-08-30T10:57:27.086Z,27.33
2022-08-30T10:58:28.830Z,27.33
2022-08-30T10:59:30.561Z,27.36
2022-08-30T11:00:32.307Z,27.41
2022-08-30T11:01:34.086Z,27.42
2022-08-30T11:02:35.763Z,27.41
2022-08-30T11:03:37.512Z,27.41
2022-08-30T11:04:39.259Z,27.46
2022-08-30T11:05:42.043Z,27.46
2022-08-30T11:06:42.724Z,27.46
2022-08-30T11:07:44.446Z,27.45
2022-08-30T11:08:46.171Z,27.49
2022-08-30T11:09:47.908Z,27.5
2022-08-30T11:10:50.075Z,27.51
2022-08-30T11:11:51.372Z,27.53
2022-08-30T11:12:53.105Z,27.54
2022-08-30T11:13:57.088Z,27.52
2022-08-30T11:14:56.581Z,27.56
2022-08-30T11:15:58.321Z,27.56
2022-08-30T11:17:00.059Z,27.59
2022-08-30T11:18:01.786Z,27.59
2022-08-30T11:19:03.523Z,27.62
2022-08-30T11:20:05.306Z,27.6
2022-08-30T11:21:10.105Z,27.63
2022-08-30T11:22:08.735Z,27.65
2022-08-30T11:23:10.467Z,27.66
2022-08-30T11:24:12.213Z,27.68
2022-08-30T11:25:13.948Z,27.69
2022-08-30T11:26:20.577Z,27.72
2022-08-30T11:27:17.427Z,27.73
2022-08-30T11:28:21.992Z,27.77
2022-08-30T11:29:20.893Z,27.8
2022-08-30T11:30:22.634Z,27.81
2022-08-30T11:31:24.381Z,27.84
2022-08-30T11:32:26.083Z,27.84
2022-08-30T11:33:27.819Z,27.84
2022-08-30T11:34:29.550Z,27.84
2022-08-30T11:35:31.296Z,27.84
2022-08-30T11:36:37.332Z,27.86
2022-08-30T11:37:34.762Z,27.87
2022-08-30T11:38:36.493Z,27.88
2022-08-30T11:39:38.231Z,27.89
2022-08-30T11:40:40.053Z,27.86
2022-08-30T11:41:43.866Z,27.85
2022-08-30T11:42:43.448Z,27.88
2022-08-30T11:43:45.175Z,27.88
2022-08-30T11:44:46.900Z,27.85
2022-08-30T11:45:48.697Z,27.87
2022-08-30T11:46:50.380Z,27.85
2022-08-30T11:47:52.099Z,27.86
2022-08-30T11:48:55.698Z,27.89
2022-08-30T11:49:55.567Z,27.91
2022-08-30T11:50:57.334Z,27.94
2022-08-30T11:52:26.323Z,27.96
2022-08-30T11:57:08.194Z,28.09
2022-08-30T11:58:58.666Z,28.11
2022-08-30T12:00:00.410Z,28.09
2022-08-30T12:01:31.806Z,28.11
2022-08-30T12:02:03.996Z,28.1
2022-08-30T12:03:05.805Z,28.14
2022-08-30T12:04:07.362Z,28.16
2022-08-30T12:05:09.100Z,28.17
2022-08-30T12:06:10.833Z,28.18
2022-08-30T12:07:12.567Z,28.19
2022-08-30T12:08:14.259Z,28.19
2022-08-30T12:09:16.026Z,28.22
2022-08-30T12:10:17.751Z,28.22
2022-08-30T12:11:19.478Z,28.24
2022-08-30T12:12:54.763Z,28.24
2022-08-30T12:13:56.473Z,28.26
2022-08-30T12:14:58.183Z,28.24
2022-08-30T12:15:59.902Z,28.26
2022-08-30T12:17:01.715Z,28.27
2022-08-30T12:18:03.356Z,28.27
2022-08-30T12:19:05.104Z,28.28
2022-08-30T12:20:06.836Z,28.27
2022-08-30T12:21:08.574Z,28.27
2022-08-30T12:22:11.476Z,28.29
2022-08-30T12:23:17.207Z,28.31
2022-08-30T12:24:18.922Z,28.32
2022-08-30T12:25:21.504Z,28.34
2022-08-30T12:26:22.382Z,28.35
2022-08-30T12:27:24.131Z,28.38
2022-08-30T12:28:25.840Z,28.4
2022-08-30T12:29:27.577Z,28.41
2022-08-30T12:30:29.340Z,28.43
2022-08-30T12:31:31.146Z,28.44
2022-08-30T12:32:32.823Z,28.45
2022-08-30T12:33:39.544Z,28.47
2022-08-30T12:34:36.263Z,28.49
2022-08-30T12:35:37.994Z,28.51
2022-08-30T12:36:59.435Z,28.53
2022-08-30T12:39:18.663Z,28.54
2022-08-30T12:40:20.413Z,28.56
2022-08-30T12:41:22.140Z,28.55
2022-08-30T12:42:23.836Z,28.49
2022-08-30T12:43:26.577Z,28.47
2022-08-30T12:43:41.514Z,28.47
2022-08-30T12:44:42.744Z,28.46
2022-08-30T12:45:44.562Z,28.44
2022-08-30T12:46:46.212Z,28.41
2022-08-30T12:47:47.945Z,28.38
2022-08-30T12:48:49.683Z,28.37
2022-08-30T12:49:51.411Z,28.33
2022-08-30T12:50:53.166Z,28.3
2022-08-30T12:51:54.902Z,28.24
2022-08-30T12:52:56.620Z,28.22
2022-08-30T12:53:58.367Z,28.21
2022-08-30T12:55:00.081Z,28.22
2022-08-30T12:56:06.827Z,28.22
2022-08-30T12:57:19.228Z,28.25
2022-08-30T12:58:05.269Z,28.28
2022-08-30T12:59:07.030Z,28.31
2022-08-30T13:00:08.785Z,28.34
2022-08-30T13:01:10.858Z,28.38
2022-08-30T13:02:20.152Z,28.42
2022-08-30T13:03:25.763Z,28.46
2022-08-30T13:04:15.742Z,28.5
2022-08-30T13:05:17.444Z,28.54
2022-08-30T13:06:19.203Z,28.58
2022-08-30T13:07:20.922Z,28.64
2022-08-30T13:08:22.654Z,28.69
2022-08-30T13:09:24.350Z,28.75
2022-08-30T13:10:26.097Z,28.81
2022-08-30T13:11:29.429Z,28.88
2022-08-30T13:12:29.580Z,28.95
2022-08-30T13:13:31.318Z,29
2022-08-30T13:14:33.026Z,29.06
2022-08-30T13:15:34.766Z,29.11
2022-08-30T13:16:36.579Z,29.18
2022-08-30T13:17:38.232Z,29.24
2022-08-30T13:18:39.979Z,29.29
2022-08-30T13:19:41.700Z,29.32
2022-08-30T13:20:43.453Z,29.27
2022-08-30T13:21:45.170Z,29.27
2022-08-30T13:22:46.931Z,29.24
2022-08-30T13:23:48.647Z,29.27
2022-08-30T13:24:50.383Z,29.27